Lynchburg, VA

04:00 EDT le 01 avril 2015 (GMT -0400)
Concord Turnpike | | Change Station
CLOSE
Current Station
Stations météorologiques personnelles
Location: Lynchburg, VA
Altitude: 543 ft
Stations météo à proximité

Alt. 543 ft 37.40 °N, 79.11 °W | Updated 7 seconds ago

Ciel dégagé
Ciel dégagé
45.8 ° F
Paraît 46 ° F
N
0.7
Vent Variable Vent de SE
Gusts 2.8 mph

Aujourd'hui
Haut(e) -- | Bas -- ° F
--% Risque de précip.
Hier
Haut(e) -- | Bas -- ° F
Precip. -- pouce
7:02 AM 7:39 PM
Lune gibbeuse croissante, 91% visible
Pression 29.92 pouce
Visibilité 10.0 Miles terrestres
Nuages Ciel dégagé
Refroidissement éolien 46 ° F
Point de rosée 35 ° F
Humidité 64%
Précipitations 0.00 pouce
Profondeur de la couche neigeuse Non disponible.
UV 0 sur 12
Pollen 10.30 sur 12
Qualité de l'air Non disponible.
Flu Activity Non disponible.
METAR KLYH 010754Z AUTO 00000KT 10SM CLR 07/M01 A2993 RMK AO2 SLP132 T00721006

More Conditions Fewer Conditions

Pression 29.92 pouce
Visibilité 10.0 Miles terrestres
Nuages Ciel dégagé
Refroidissement éolien 46 ° F
Point de rosée 35 ° F
Humidité 64%
Précipitations 0.00 pouce
Profondeur de la couche neigeuse Non disponible.
UV 0 sur 12
Pollen 10.30 sur 12
Qualité de l'air Non disponible.
Flu Activity Non disponible.
METAR KLYH 010754Z AUTO 00000KT 10SM CLR 07/M01 A2993 RMK AO2 SLP132 T00721006

More Conditions Fewer Conditions

10-Day Weather Forecast

Almanac

Astronomie

Apr. 01, 2015 Lever Coucher
Temps réel
Crépuscule civil
Crépuscule nautique
Crépuscule astronomique
Lune
Durée de lumière visible
Longueur du jour
Tomorrow will be .
, % of the Moon is Illuminated

Extrêmes aujourd'hui

State Highs State Lows

Community

WunderPhotos

Upload Photos

1,809,930 Photos téléchargées !

WunderBlogs® & News

Nearby

Qualité de l'air

  Qualité de l'air Indice de la qualité de l'air Polluant
Not available.

Épaisseur de neige

Station Depth Altitude

Activité sismique

Ville Distance Mag. Time & Date
Minimum magnitude displayed is 2.5.

Températures des eaux côtières

Lieu Température

Stations

Stations météo à proximité

Emplacement de la station Température Refroidissement éolien Point de rosée Humidité Vent Precip. Alt. Mise à jour Type